WZZ9LJ LIRF-LBSF
Flight info
| Callsign | WZZ9LJ |
|---|---|
| Flight time | 1h 20m |
| Altitude | 36000 |
| Route | OKUNO DCT ATRUP DCT PES DCT XOLTA DCT BUNEX DCT BAJUN DCT NISVA |
| Aircraft | A321/M-SDE3FGHIRWY/LB1 |
Departure
| Time | 2026-05-06 18:53 |
|---|---|
| Airport | Rome–Fiumicino Leonardo da Vinci International Airport (LIRF) |
Arrival
| Time | 2026-05-06 20:13 |
|---|---|
| Airport | Sofia Airport (LBSF) |
| Time | Latitude | Longitude | Altitude | Speed | Heading |
|---|---|---|---|---|---|
| 2026-05-06 18:17 | 41.79652 | 12.25599 | 14 ft | 0 kts | 294° |
| 2026-05-06 18:40 | 41.79650 | 12.25606 | 15 ft | 1 kts | 282° |
| 2026-05-06 18:41 | 41.79649 | 12.25620 | 15 ft | 2 kts | 279° |
| 2026-05-06 18:41 | 41.79650 | 12.25633 | 15 ft | 1 kts | 277° |
| 2026-05-06 18:41 | 41.79648 | 12.25647 | 16 ft | 1 kts | 323° |
| 2026-05-06 18:41 | 41.79637 | 12.25658 | 17 ft | 1 kts | 339° |
| 2026-05-06 18:42 | 41.79629 | 12.25659 | 17 ft | 1 kts | 26° |
| 2026-05-06 18:42 | 41.79622 | 12.25655 | 16 ft | 1 kts | 29° |
| 2026-05-06 18:42 | 41.79618 | 12.25652 | 15 ft | 0 kts | 28° |
| 2026-05-06 18:45 | 41.79625 | 12.25657 | 16 ft | 4 kts | 26° |
| 2026-05-06 18:45 | 41.79658 | 12.25678 | 16 ft | 12 kts | 25° |
| 2026-05-06 18:46 | 41.79771 | 12.25749 | 14 ft | 14 kts | 25° |
| 2026-05-06 18:46 | 41.79847 | 12.25803 | 14 ft | 10 kts | 39° |
| 2026-05-06 18:46 | 41.79915 | 12.25850 | 14 ft | 12 kts | 24° |
| 2026-05-06 18:46 | 41.79992 | 12.25897 | 15 ft | 13 kts | 25° |
| 2026-05-06 18:47 | 41.80075 | 12.25948 | 16 ft | 14 kts | 25° |
| 2026-05-06 18:47 | 41.80167 | 12.26005 | 15 ft | 15 kts | 25° |
| 2026-05-06 18:47 | 41.80267 | 12.26066 | 14 ft | 16 kts | 25° |
| 2026-05-06 18:47 | 41.80371 | 12.26131 | 15 ft | 17 kts | 25° |
| 2026-05-06 18:48 | 41.80481 | 12.26177 | 16 ft | 17 kts | 5° |
| 2026-05-06 18:48 | 41.80544 | 12.26295 | 16 ft | 17 kts | 70° |
| 2026-05-06 18:48 | 41.80586 | 12.26448 | 16 ft | 18 kts | 70° |
| 2026-05-06 18:48 | 41.80630 | 12.26611 | 15 ft | 19 kts | 70° |
| 2026-05-06 18:49 | 41.80677 | 12.26780 | 14 ft | 20 kts | 69° |
| 2026-05-06 18:49 | 41.80726 | 12.26959 | 13 ft | 14 kts | 70° |
| 2026-05-06 18:49 | 41.80789 | 12.27048 | 13 ft | 15 kts | 360° |
| 2026-05-06 18:49 | 41.80847 | 12.27023 | 13 ft | 5 kts | 340° |
| 2026-05-06 18:50 | 41.80884 | 12.27005 | 13 ft | 6 kts | 340° |
| 2026-05-06 18:50 | 41.80930 | 12.26983 | 13 ft | 8 kts | 340° |
| 2026-05-06 18:50 | 41.80961 | 12.26936 | 12 ft | 7 kts | 258° |
| 2026-05-06 18:50 | 41.80957 | 12.26923 | 13 ft | 0 kts | 249° |
| 2026-05-06 18:52 | 41.80923 | 12.26800 | 13 ft | 47 kts | 250° |
| 2026-05-06 18:52 | 41.80722 | 12.26071 | 19 ft | 117 kts | 250° |
| 2026-05-06 18:52 | 41.80368 | 12.24793 | 20 ft | 173 kts | 250° |
| 2026-05-06 18:52 | 41.79932 | 12.23212 | 516 ft | 181 kts | 245° |
| 2026-05-06 18:53 | 41.79486 | 12.21664 | 1270 ft | 180 kts | 240° |
| 2026-05-06 18:53 | 41.78712 | 12.20333 | 1728 ft | 188 kts | 215° |
| 2026-05-06 18:53 | 41.77685 | 12.19203 | 2224 ft | 194 kts | 216° |
| 2026-05-06 18:53 | 41.76644 | 12.18043 | 2786 ft | 196 kts | 217° |
| 2026-05-06 18:54 | 41.75504 | 12.17054 | 3366 ft | 196 kts | 199° |
| 2026-05-06 18:54 | 41.74145 | 12.16786 | 3748 ft | 208 kts | 179° |
| 2026-05-06 18:54 | 41.72603 | 12.16859 | 3929 ft | 235 kts | 178° |
| 2026-05-06 18:54 | 41.70941 | 12.16947 | 4456 ft | 247 kts | 179° |
| 2026-05-06 18:55 | 41.69203 | 12.17038 | 5191 ft | 253 kts | 179° |
| 2026-05-06 18:55 | 41.67430 | 12.17128 | 5933 ft | 257 kts | 179° |
| 2026-05-06 18:55 | 41.65626 | 12.17216 | 6675 ft | 262 kts | 179° |
| 2026-05-06 18:55 | 41.63791 | 12.17302 | 7400 ft | 265 kts | 179° |
| 2026-05-06 18:56 | 41.61944 | 12.17389 | 8175 ft | 268 kts | 179° |
| 2026-05-06 18:56 | 41.60108 | 12.17876 | 8901 ft | 274 kts | 158° |
| 2026-05-06 18:56 | 41.58555 | 12.19383 | 9620 ft | 283 kts | 131° |
| 2026-05-06 18:56 | 41.57637 | 12.21727 | 10312 ft | 292 kts | 105° |
| 2026-05-06 18:57 | 41.57618 | 12.24429 | 10948 ft | 303 kts | 78° |
| 2026-05-06 18:57 | 41.58573 | 12.27027 | 11236 ft | 327 kts | 50° |
| 2026-05-06 18:57 | 41.60239 | 12.29255 | 11381 ft | 350 kts | 43° |
| 2026-05-06 18:57 | 41.62104 | 12.31454 | 11782 ft | 362 kts | 41° |
| 2026-05-06 18:58 | 41.64046 | 12.33642 | 12435 ft | 366 kts | 40° |
| 2026-05-06 18:58 | 41.66010 | 12.35846 | 13063 ft | 371 kts | 40° |
| 2026-05-06 18:58 | 41.67984 | 12.38093 | 13739 ft | 374 kts | 41° |
| 2026-05-06 18:58 | 41.69963 | 12.40385 | 14324 ft | 378 kts | 41° |
| 2026-05-06 18:59 | 41.71921 | 12.42689 | 14902 ft | 382 kts | 42° |
| 2026-05-06 18:59 | 41.73917 | 12.45063 | 15491 ft | 386 kts | 42° |
| 2026-05-06 18:59 | 41.75930 | 12.47469 | 16069 ft | 390 kts | 42° |
| 2026-05-06 18:59 | 41.77965 | 12.49899 | 16642 ft | 394 kts | 42° |
| 2026-05-06 19:00 | 41.80030 | 12.52355 | 17202 ft | 399 kts | 42° |
| 2026-05-06 19:00 | 41.82116 | 12.54833 | 17766 ft | 403 kts | 42° |
| 2026-05-06 19:00 | 41.84224 | 12.57343 | 18314 ft | 408 kts | 42° |
| 2026-05-06 19:00 | 41.85635 | 12.59026 | 18632 ft | 411 kts | 42° |
| 2026-05-06 19:01 | 41.88472 | 12.62419 | 19298 ft | 416 kts | 42° |
| 2026-05-06 19:01 | 41.90642 | 12.65017 | 19823 ft | 419 kts | 42° |
| 2026-05-06 19:01 | 41.92830 | 12.67634 | 20321 ft | 424 kts | 41° |
| 2026-05-06 19:01 | 41.95043 | 12.70279 | 20811 ft | 428 kts | 41° |
| 2026-05-06 19:02 | 41.97275 | 12.72947 | 21310 ft | 432 kts | 41° |
| 2026-05-06 19:02 | 41.99531 | 12.75648 | 21807 ft | 436 kts | 41° |
| 2026-05-06 19:02 | 42.01800 | 12.78380 | 22293 ft | 440 kts | 43° |
| 2026-05-06 19:02 | 42.03866 | 12.81441 | 22770 ft | 444 kts | 53° |
| 2026-05-06 19:03 | 42.05534 | 12.84883 | 23255 ft | 447 kts | 61° |
| 2026-05-06 19:03 | 42.07062 | 12.88540 | 23685 ft | 450 kts | 61° |
| 2026-05-06 19:03 | 42.08607 | 12.92227 | 24068 ft | 454 kts | 61° |
| 2026-05-06 19:03 | 42.10169 | 12.95939 | 24440 ft | 458 kts | 61° |
| 2026-05-06 19:04 | 42.11733 | 12.99691 | 24813 ft | 461 kts | 62° |
| 2026-05-06 19:04 | 42.13262 | 13.03500 | 25201 ft | 464 kts | 63° |
| 2026-05-06 19:04 | 42.14766 | 13.07359 | 25564 ft | 467 kts | 64° |
| 2026-05-06 19:04 | 42.16260 | 13.11267 | 25923 ft | 471 kts | 64° |
| 2026-05-06 19:05 | 42.17757 | 13.15204 | 26249 ft | 474 kts | 64° |
| 2026-05-06 19:05 | 42.19252 | 13.19119 | 26568 ft | 478 kts | 63° |
| 2026-05-06 19:05 | 42.20790 | 13.23108 | 26899 ft | 482 kts | 63° |
| 2026-05-06 19:05 | 42.22350 | 13.27121 | 27261 ft | 484 kts | 63° |
| 2026-05-06 19:06 | 42.23927 | 13.31159 | 27618 ft | 488 kts | 63° |
| 2026-05-06 19:06 | 42.25515 | 13.35222 | 27933 ft | 491 kts | 64° |
| 2026-05-06 19:06 | 42.27108 | 13.39314 | 28273 ft | 494 kts | 64° |
| 2026-05-06 19:06 | 42.28702 | 13.43428 | 28623 ft | 496 kts | 64° |
| 2026-05-06 19:07 | 42.30279 | 13.47518 | 28943 ft | 499 kts | 64° |
| 2026-05-06 19:07 | 42.31362 | 13.50337 | 29121 ft | 501 kts | 64° |
| 2026-05-06 19:07 | 42.33482 | 13.55885 | 29625 ft | 503 kts | 65° |
| 2026-05-06 19:07 | 42.34814 | 13.60255 | 29976 ft | 503 kts | 75° |
| 2026-05-06 19:08 | 42.35688 | 13.64815 | 30271 ft | 502 kts | 82° |
| 2026-05-06 19:08 | 42.36374 | 13.69464 | 30545 ft | 505 kts | 82° |
| 2026-05-06 19:08 | 42.37065 | 13.74131 | 30832 ft | 507 kts | 82° |
| 2026-05-06 19:08 | 42.37761 | 13.78802 | 31217 ft | 506 kts | 82° |
| 2026-05-06 19:09 | 42.38446 | 13.83404 | 31600 ft | 506 kts | 82° |
| 2026-05-06 19:09 | 42.39138 | 13.88064 | 31978 ft | 505 kts | 82° |
| 2026-05-06 19:09 | 42.39828 | 13.92722 | 32357 ft | 505 kts | 82° |
| 2026-05-06 19:09 | 42.40514 | 13.97384 | 32716 ft | 505 kts | 82° |
| 2026-05-06 19:10 | 42.41197 | 14.02041 | 33077 ft | 505 kts | 82° |
| 2026-05-06 19:10 | 42.41881 | 14.06704 | 33428 ft | 505 kts | 82° |
| 2026-05-06 19:10 | 42.42561 | 14.11359 | 33780 ft | 505 kts | 82° |
| 2026-05-06 19:10 | 42.43238 | 14.16023 | 34115 ft | 505 kts | 82° |
| 2026-05-06 19:11 | 42.43914 | 14.20615 | 34430 ft | 505 kts | 81° |
| 2026-05-06 19:11 | 42.44675 | 14.25254 | 34716 ft | 505 kts | 79° |
| 2026-05-06 19:11 | 42.45503 | 14.29870 | 35032 ft | 504 kts | 78° |
| 2026-05-06 19:11 | 42.46367 | 14.34468 | 35347 ft | 503 kts | 77° |
| 2026-05-06 19:12 | 42.47232 | 14.39052 | 35667 ft | 502 kts | 78° |
| 2026-05-06 19:12 | 42.48081 | 14.43637 | 35990 ft | 501 kts | 78° |
| 2026-05-06 19:12 | 42.48906 | 14.48212 | 36312 ft | 500 kts | 78° |
| 2026-05-06 19:12 | 42.49442 | 14.51245 | 36521 ft | 499 kts | 78° |
| 2026-05-06 19:13 | 42.50491 | 14.57301 | 36887 ft | 499 kts | 79° |
| 2026-05-06 19:13 | 42.52058 | 14.66447 | 36937 ft | 498 kts | 78° |
| 2026-05-06 19:14 | 42.53639 | 14.75571 | 36937 ft | 497 kts | 78° |
| 2026-05-06 19:14 | 42.55225 | 14.84686 | 36937 ft | 497 kts | 78° |
| 2026-05-06 19:15 | 42.56804 | 14.93812 | 36918 ft | 497 kts | 78° |
| 2026-05-06 19:15 | 42.58360 | 15.02884 | 36950 ft | 498 kts | 78° |
| 2026-05-06 19:16 | 42.59920 | 15.12041 | 36953 ft | 498 kts | 78° |
| 2026-05-06 19:16 | 42.61472 | 15.21203 | 36976 ft | 498 kts | 79° |
| 2026-05-06 19:17 | 42.62756 | 15.28829 | 36952 ft | 499 kts | 79° |
| 2026-05-06 19:17 | 42.64548 | 15.39502 | 36950 ft | 499 kts | 79° |
| 2026-05-06 19:18 | 42.66084 | 15.48703 | 36951 ft | 500 kts | 79° |
| 2026-05-06 19:18 | 42.67356 | 15.56358 | 36961 ft | 500 kts | 79° |
| 2026-05-06 19:19 | 42.68876 | 15.65576 | 36963 ft | 500 kts | 79° |
| 2026-05-06 19:19 | 42.70388 | 15.74811 | 36971 ft | 501 kts | 79° |
| 2026-05-06 19:20 | 42.71835 | 15.84075 | 36978 ft | 501 kts | 80° |
| 2026-05-06 19:20 | 42.73210 | 15.93305 | 37006 ft | 501 kts | 80° |
| 2026-05-06 19:21 | 42.74584 | 16.02597 | 36984 ft | 501 kts | 79° |
| 2026-05-06 19:21 | 42.75968 | 16.11895 | 36997 ft | 501 kts | 79° |
| 2026-05-06 19:22 | 42.77347 | 16.21177 | 37004 ft | 501 kts | 79° |
| 2026-05-06 19:22 | 42.78712 | 16.30412 | 37007 ft | 501 kts | 79° |
| 2026-05-06 19:23 | 42.80079 | 16.39712 | 37010 ft | 501 kts | 79° |
| 2026-05-06 19:23 | 42.81438 | 16.49009 | 37029 ft | 500 kts | 79° |
| 2026-05-06 19:24 | 42.82783 | 16.58300 | 37033 ft | 500 kts | 79° |
| 2026-05-06 19:24 | 42.84119 | 16.67593 | 37037 ft | 500 kts | 79° |
| 2026-05-06 19:25 | 42.85430 | 16.76821 | 37032 ft | 500 kts | 79° |
| 2026-05-06 19:25 | 42.86750 | 16.86114 | 37045 ft | 499 kts | 79° |
| 2026-05-06 19:26 | 42.88073 | 16.95405 | 37051 ft | 499 kts | 79° |
| 2026-05-06 19:26 | 42.89384 | 17.04690 | 37050 ft | 498 kts | 79° |
| 2026-05-06 19:27 | 42.90677 | 17.13907 | 37043 ft | 498 kts | 79° |
| 2026-05-06 19:27 | 42.91961 | 17.23193 | 37072 ft | 499 kts | 79° |
| 2026-05-06 19:28 | 42.93240 | 17.32502 | 37067 ft | 500 kts | 79° |
| 2026-05-06 19:28 | 42.94513 | 17.41834 | 37053 ft | 500 kts | 79° |
| 2026-05-06 19:29 | 42.95770 | 17.51106 | 37066 ft | 500 kts | 79° |
| 2026-05-06 19:29 | 42.97032 | 17.60438 | 37071 ft | 500 kts | 79° |
| 2026-05-06 19:30 | 42.98294 | 17.69781 | 37076 ft | 500 kts | 79° |
| 2026-05-06 19:30 | 42.99545 | 17.79128 | 37077 ft | 500 kts | 79° |
| 2026-05-06 19:31 | 43.00782 | 17.88471 | 37095 ft | 500 kts | 79° |
| 2026-05-06 19:31 | 43.02630 | 18.02445 | 37092 ft | 501 kts | 79° |
| 2026-05-06 19:32 | 43.03855 | 18.11819 | 37094 ft | 501 kts | 79° |
| 2026-05-06 19:32 | 43.05070 | 18.21188 | 37102 ft | 501 kts | 79° |
| 2026-05-06 19:33 | 43.06274 | 18.30566 | 37101 ft | 501 kts | 79° |
| 2026-05-06 19:33 | 43.07467 | 18.39880 | 37099 ft | 501 kts | 79° |
| 2026-05-06 19:34 | 43.08661 | 18.49260 | 37096 ft | 501 kts | 79° |
| 2026-05-06 19:34 | 43.09849 | 18.58642 | 37101 ft | 501 kts | 79° |
| 2026-05-06 19:35 | 43.11016 | 18.67973 | 37095 ft | 500 kts | 79° |
| 2026-05-06 19:35 | 43.12182 | 18.77355 | 37098 ft | 500 kts | 79° |
| 2026-05-06 19:36 | 43.13338 | 18.86727 | 37085 ft | 499 kts | 79° |
| 2026-05-06 19:36 | 43.14485 | 18.96082 | 37098 ft | 498 kts | 79° |
| 2026-05-06 19:37 | 43.15622 | 19.05364 | 37096 ft | 497 kts | 79° |
| 2026-05-06 19:37 | 43.16763 | 19.14687 | 37062 ft | 496 kts | 79° |
| 2026-05-06 19:38 | 43.17880 | 19.24006 | 37080 ft | 495 kts | 79° |
| 2026-05-06 19:38 | 43.18896 | 19.33335 | 37069 ft | 495 kts | 82° |
| 2026-05-06 19:39 | 43.19555 | 19.42660 | 37057 ft | 495 kts | 84° |
| 2026-05-06 19:39 | 43.20075 | 19.52057 | 37064 ft | 494 kts | 84° |
| 2026-05-06 19:40 | 43.20654 | 19.61440 | 37070 ft | 493 kts | 83° |
| 2026-05-06 19:40 | 43.21285 | 19.70794 | 37054 ft | 493 kts | 83° |
| 2026-05-06 19:41 | 43.21914 | 19.80091 | 37060 ft | 493 kts | 83° |
| 2026-05-06 19:41 | 43.22530 | 19.89433 | 37067 ft | 492 kts | 83° |
| 2026-05-06 19:42 | 43.23123 | 19.98758 | 37069 ft | 491 kts | 84° |
| 2026-05-06 19:42 | 43.23712 | 20.08072 | 37065 ft | 490 kts | 84° |
| 2026-05-06 19:43 | 43.24294 | 20.17315 | 37039 ft | 489 kts | 84° |
| 2026-05-06 19:43 | 43.24870 | 20.26597 | 37055 ft | 487 kts | 84° |
| 2026-05-06 19:44 | 43.25431 | 20.35853 | 37052 ft | 486 kts | 84° |
| 2026-05-06 19:44 | 43.25989 | 20.45087 | 37056 ft | 485 kts | 84° |
| 2026-05-06 19:45 | 43.26541 | 20.54311 | 37043 ft | 485 kts | 84° |
| 2026-05-06 19:45 | 43.27068 | 20.63487 | 37040 ft | 485 kts | 84° |
| 2026-05-06 19:46 | 43.27596 | 20.72696 | 37061 ft | 484 kts | 84° |
| 2026-05-06 19:46 | 43.27859 | 20.77297 | 36870 ft | 482 kts | 84° |
| 2026-05-06 19:46 | 43.28120 | 20.81874 | 36605 ft | 481 kts | 84° |
| 2026-05-06 19:47 | 43.28380 | 20.86447 | 36337 ft | 481 kts | 84° |
| 2026-05-06 19:47 | 43.28634 | 20.90960 | 35973 ft | 481 kts | 84° |
| 2026-05-06 19:47 | 43.28891 | 20.95543 | 35295 ft | 483 kts | 84° |
| 2026-05-06 19:47 | 43.29146 | 21.00144 | 34667 ft | 484 kts | 84° |
| 2026-05-06 19:48 | 43.29393 | 21.04747 | 34133 ft | 483 kts | 84° |
| 2026-05-06 19:48 | 43.29636 | 21.09338 | 33542 ft | 482 kts | 84° |
| 2026-05-06 19:48 | 43.29877 | 21.13906 | 33019 ft | 479 kts | 84° |
| 2026-05-06 19:48 | 43.30117 | 21.18451 | 32482 ft | 476 kts | 84° |
| 2026-05-06 19:49 | 43.30355 | 21.22972 | 31922 ft | 473 kts | 84° |
| 2026-05-06 19:49 | 43.30486 | 21.27407 | 31436 ft | 471 kts | 91° |
| 2026-05-06 19:49 | 43.30123 | 21.31853 | 30933 ft | 469 kts | 101° |
| 2026-05-06 19:49 | 43.29280 | 21.36162 | 30437 ft | 466 kts | 106° |
| 2026-05-06 19:50 | 43.28353 | 21.40408 | 29918 ft | 462 kts | 105° |
| 2026-05-06 19:50 | 43.27440 | 21.44618 | 29403 ft | 458 kts | 105° |
| 2026-05-06 19:50 | 43.26543 | 21.48779 | 28927 ft | 453 kts | 105° |
| 2026-05-06 19:50 | 43.25659 | 21.52897 | 28461 ft | 447 kts | 105° |
| 2026-05-06 19:51 | 43.24782 | 21.56969 | 28004 ft | 443 kts | 105° |
| 2026-05-06 19:51 | 43.23923 | 21.60936 | 27563 ft | 438 kts | 106° |
| 2026-05-06 19:51 | 43.23051 | 21.64923 | 27123 ft | 434 kts | 106° |
| 2026-05-06 19:51 | 43.22184 | 21.68861 | 26694 ft | 430 kts | 106° |
| 2026-05-06 19:52 | 43.21323 | 21.72768 | 26275 ft | 427 kts | 106° |
| 2026-05-06 19:52 | 43.20470 | 21.76654 | 25856 ft | 423 kts | 106° |
| 2026-05-06 19:52 | 43.19625 | 21.80505 | 25435 ft | 421 kts | 106° |
| 2026-05-06 19:52 | 43.18785 | 21.84336 | 25017 ft | 419 kts | 106° |
| 2026-05-06 19:53 | 43.17945 | 21.88153 | 24588 ft | 417 kts | 106° |
| 2026-05-06 19:53 | 43.17117 | 21.91898 | 24162 ft | 416 kts | 107° |
| 2026-05-06 19:53 | 43.16275 | 21.95681 | 23740 ft | 415 kts | 107° |
| 2026-05-06 19:53 | 43.15434 | 21.99454 | 23251 ft | 414 kts | 107° |
| 2026-05-06 19:54 | 43.14601 | 22.03209 | 22807 ft | 410 kts | 107° |
| 2026-05-06 19:54 | 43.13775 | 22.06934 | 22359 ft | 407 kts | 107° |
| 2026-05-06 19:54 | 43.12951 | 22.10632 | 21911 ft | 404 kts | 107° |
| 2026-05-06 19:54 | 43.12133 | 22.14297 | 21458 ft | 401 kts | 107° |
| 2026-05-06 19:55 | 43.11319 | 22.17936 | 21008 ft | 399 kts | 107° |
| 2026-05-06 19:55 | 43.10520 | 22.21508 | 20558 ft | 396 kts | 107° |
| 2026-05-06 19:55 | 43.09712 | 22.25102 | 20103 ft | 394 kts | 107° |
| 2026-05-06 19:55 | 43.08907 | 22.28667 | 19668 ft | 391 kts | 107° |
| 2026-05-06 19:56 | 43.08109 | 22.32211 | 19206 ft | 389 kts | 107° |
| 2026-05-06 19:56 | 43.07316 | 22.35728 | 18766 ft | 386 kts | 107° |
| 2026-05-06 19:56 | 43.06529 | 22.39217 | 18319 ft | 383 kts | 107° |
| 2026-05-06 19:56 | 43.05745 | 22.42687 | 17835 ft | 380 kts | 108° |
| 2026-05-06 19:57 | 43.04970 | 22.46116 | 17400 ft | 376 kts | 108° |
| 2026-05-06 19:57 | 43.04198 | 22.49511 | 16961 ft | 372 kts | 108° |
| 2026-05-06 19:57 | 43.03443 | 22.52818 | 16537 ft | 368 kts | 108° |
| 2026-05-06 19:57 | 43.02684 | 22.56137 | 16111 ft | 364 kts | 108° |
| 2026-05-06 19:58 | 43.01935 | 22.59424 | 15683 ft | 360 kts | 108° |
| 2026-05-06 19:58 | 43.01197 | 22.62671 | 15265 ft | 356 kts | 108° |
| 2026-05-06 19:58 | 43.00464 | 22.65887 | 14849 ft | 353 kts | 108° |
| 2026-05-06 19:58 | 42.99735 | 22.69074 | 14437 ft | 350 kts | 108° |
| 2026-05-06 19:59 | 42.99008 | 22.72237 | 14025 ft | 348 kts | 108° |
| 2026-05-06 19:59 | 42.98295 | 22.75333 | 13601 ft | 345 kts | 108° |
| 2026-05-06 19:59 | 42.97570 | 22.78440 | 13186 ft | 341 kts | 110° |
| 2026-05-06 19:59 | 42.96556 | 22.81324 | 12883 ft | 332 kts | 123° |
| 2026-05-06 20:00 | 42.95328 | 22.83950 | 12798 ft | 327 kts | 123° |
| 2026-05-06 20:00 | 42.94111 | 22.86571 | 12670 ft | 326 kts | 123° |
| 2026-05-06 20:00 | 42.92904 | 22.89182 | 12532 ft | 325 kts | 123° |
| 2026-05-06 20:00 | 42.91701 | 22.91784 | 12387 ft | 324 kts | 123° |
| 2026-05-06 20:01 | 42.90502 | 22.94375 | 12251 ft | 322 kts | 123° |
| 2026-05-06 20:01 | 42.89428 | 22.97053 | 12085 ft | 322 kts | 112° |
| 2026-05-06 20:01 | 42.88827 | 22.99937 | 11922 ft | 321 kts | 99° |
| 2026-05-06 20:01 | 42.88632 | 23.02970 | 11787 ft | 321 kts | 94° |
| 2026-05-06 20:02 | 42.88470 | 23.06001 | 11648 ft | 320 kts | 95° |
| 2026-05-06 20:02 | 42.88298 | 23.09019 | 11512 ft | 319 kts | 95° |
| 2026-05-06 20:02 | 42.88121 | 23.12019 | 11373 ft | 313 kts | 95° |
| 2026-05-06 20:02 | 42.87949 | 23.14927 | 11237 ft | 303 kts | 95° |
| 2026-05-06 20:03 | 42.87783 | 23.17739 | 11097 ft | 293 kts | 95° |
| 2026-05-06 20:03 | 42.87526 | 23.20402 | 10956 ft | 282 kts | 110° |
| 2026-05-06 20:03 | 42.86487 | 23.22550 | 10832 ft | 268 kts | 143° |
| 2026-05-06 20:03 | 42.84822 | 23.23577 | 10586 ft | 267 kts | 175° |
| 2026-05-06 20:04 | 42.82968 | 23.23494 | 10264 ft | 265 kts | 186° |
| 2026-05-06 20:04 | 42.81152 | 23.23052 | 9837 ft | 267 kts | 205° |
| 2026-05-06 20:04 | 42.79754 | 23.21447 | 9292 ft | 266 kts | 240° |
| 2026-05-06 20:04 | 42.79291 | 23.19057 | 8730 ft | 263 kts | 271° |
| 2026-05-06 20:05 | 42.79406 | 23.16580 | 8175 ft | 262 kts | 274° |
| 2026-05-06 20:05 | 42.79562 | 23.14113 | 7633 ft | 261 kts | 274° |
| 2026-05-06 20:05 | 42.79721 | 23.11694 | 7094 ft | 259 kts | 273° |
| 2026-05-06 20:05 | 42.79877 | 23.09258 | 6565 ft | 258 kts | 273° |
| 2026-05-06 20:06 | 42.80003 | 23.06862 | 6091 ft | 247 kts | 266° |
| 2026-05-06 20:06 | 42.79674 | 23.04686 | 5989 ft | 231 kts | 244° |
| 2026-05-06 20:06 | 42.78773 | 23.02900 | 6001 ft | 228 kts | 223° |
| 2026-05-06 20:06 | 42.77466 | 23.01769 | 6007 ft | 220 kts | 201° |
| 2026-05-06 20:07 | 42.75976 | 23.01369 | 6000 ft | 220 kts | 182° |
| 2026-05-06 20:07 | 42.74470 | 23.01705 | 5998 ft | 222 kts | 162° |
| 2026-05-06 20:07 | 42.73129 | 23.02761 | 6001 ft | 226 kts | 141° |
| 2026-05-06 20:07 | 42.72156 | 23.04405 | 5999 ft | 229 kts | 120° |
| 2026-05-06 20:08 | 42.71691 | 23.06485 | 6004 ft | 233 kts | 97° |
| 2026-05-06 20:08 | 42.71561 | 23.08685 | 6000 ft | 234 kts | 96° |
| 2026-05-06 20:08 | 42.71442 | 23.10895 | 5833 ft | 233 kts | 96° |
| 2026-05-06 20:08 | 42.71319 | 23.13077 | 5582 ft | 228 kts | 96° |
| 2026-05-06 20:09 | 42.71200 | 23.15171 | 5274 ft | 214 kts | 97° |
| 2026-05-06 20:09 | 42.71089 | 23.17108 | 5008 ft | 200 kts | 97° |
| 2026-05-06 20:09 | 42.70982 | 23.18958 | 4755 ft | 192 kts | 97° |
| 2026-05-06 20:09 | 42.70879 | 23.20738 | 4498 ft | 186 kts | 97° |
| 2026-05-06 20:10 | 42.70782 | 23.22420 | 4259 ft | 176 kts | 98° |
| 2026-05-06 20:10 | 42.70687 | 23.24051 | 4044 ft | 173 kts | 97° |
| 2026-05-06 20:10 | 42.70595 | 23.25632 | 3839 ft | 162 kts | 96° |
| 2026-05-06 20:10 | 42.70508 | 23.27120 | 3626 ft | 155 kts | 97° |
| 2026-05-06 20:11 | 42.70423 | 23.28570 | 3415 ft | 152 kts | 96° |
| 2026-05-06 20:11 | 42.70339 | 23.29993 | 3210 ft | 150 kts | 95° |
| 2026-05-06 20:11 | 42.70259 | 23.31409 | 3008 ft | 150 kts | 94° |
| 2026-05-06 20:11 | 42.70184 | 23.32803 | 2798 ft | 150 kts | 95° |
| 2026-05-06 20:12 | 42.70094 | 23.34210 | 2579 ft | 149 kts | 96° |
| 2026-05-06 20:12 | 42.70012 | 23.35579 | 2399 ft | 145 kts | 95° |
| 2026-05-06 20:12 | 42.69936 | 23.36927 | 2271 ft | 141 kts | 95° |
| 2026-05-06 20:12 | 42.69865 | 23.38250 | 2045 ft | 142 kts | 94° |
| 2026-05-06 20:13 | 42.69780 | 23.39578 | 1856 ft | 139 kts | 95° |
| 2026-05-06 20:13 | 42.69701 | 23.40856 | 1749 ft | 124 kts | 95° |
| 2026-05-06 20:13 | 42.69644 | 23.41788 | 1751 ft | 74 kts | 94° |
| 2026-05-06 20:13 | 42.69615 | 23.42257 | 1749 ft | 31 kts | 95° |
| 2026-05-06 20:14 | 42.69582 | 23.42530 | 1750 ft | 28 kts | 105° |
| 2026-05-06 20:14 | 42.69501 | 23.42715 | 1747 ft | 16 kts | 127° |
| 2026-05-06 20:14 | 42.69409 | 23.42720 | 1745 ft | 16 kts | 238° |
| 2026-05-06 20:14 | 42.69409 | 23.42559 | 1748 ft | 20 kts | 275° |
| 2026-05-06 20:15 | 42.69422 | 23.42331 | 1747 ft | 26 kts | 275° |
| 2026-05-06 20:15 | 42.69438 | 23.42080 | 1747 ft | 29 kts | 274° |
| 2026-05-06 20:15 | 42.69456 | 23.41780 | 1750 ft | 33 kts | 275° |
| 2026-05-06 20:15 | 42.69474 | 23.41469 | 1750 ft | 34 kts | 274° |
| 2026-05-06 20:16 | 42.69493 | 23.41149 | 1746 ft | 34 kts | 275° |
| 2026-05-06 20:16 | 42.69513 | 23.40826 | 1749 ft | 32 kts | 275° |
| 2026-05-06 20:16 | 42.69528 | 23.40572 | 1747 ft | 18 kts | 275° |
| 2026-05-06 20:16 | 42.69480 | 23.40472 | 1743 ft | 14 kts | 197° |
| 2026-05-06 20:17 | 42.69373 | 23.40429 | 1745 ft | 19 kts | 196° |
| 2026-05-06 20:17 | 42.69235 | 23.40371 | 1744 ft | 21 kts | 197° |
| 2026-05-06 20:17 | 42.69139 | 23.40387 | 1744 ft | 12 kts | 112° |
| 2026-05-06 20:17 | 42.69098 | 23.40434 | 1747 ft | 9 kts | 188° |
| 2026-05-06 20:18 | 42.69058 | 23.40418 | 1749 ft | 0 kts | 197° |